sensor_id;sensor_type;location;lat;lon;timestamp;P1;durP1;ratioP1;P2;durP2;ratioP2
48241;SDS011;34041;51.812;4.622;2023-02-15T00:01:27;28.75;;;24.20;;
48241;SDS011;34041;51.812;4.622;2023-02-15T00:04:28;28.35;;;24.83;;
48241;SDS011;34041;51.812;4.622;2023-02-15T00:07:48;32.33;;;26.25;;
48241;SDS011;34041;51.812;4.622;2023-02-15T05:11:44;29.05;;;22.85;;
48241;SDS011;34041;51.812;4.622;2023-02-15T05:14:44;32.55;;;23.58;;
48241;SDS011;34041;51.812;4.622;2023-02-15T05:17:44;30.00;;;23.92;;
48241;SDS011;34041;51.812;4.622;2023-02-15T05:20:44;26.77;;;22.83;;
48241;SDS011;34041;51.812;4.622;2023-02-15T05:23:45;26.93;;;21.97;;
48241;SDS011;34041;51.812;4.622;2023-02-15T05:26:45;28.15;;;22.75;;
48241;SDS011;34041;51.812;4.622;2023-02-15T05:33:42;30.73;;;23.10;;
48241;SDS011;34041;51.812;4.622;2023-02-15T05:36:42;28.52;;;23.65;;
48241;SDS011;34041;51.812;4.622;2023-02-15T05:39:42;32.27;;;24.23;;
48241;SDS011;34041;51.812;4.622;2023-02-15T05:42:43;29.60;;;24.20;;
48241;SDS011;34041;51.812;4.622;2023-02-15T05:45:50;24.88;;;22.17;;
48241;SDS011;34041;51.812;4.622;2023-02-15T05:48:50;28.35;;;22.42;;
48241;SDS011;34041;51.812;4.622;2023-02-15T05:51:50;27.70;;;22.10;;
48241;SDS011;34041;51.812;4.622;2023-02-15T05:54:51;40.57;;;22.30;;
48241;SDS011;34041;51.812;4.622;2023-02-15T05:57:51;31.77;;;23.73;;
48241;SDS011;34041;51.812;4.622;2023-02-15T06:00:51;28.43;;;21.97;;
48241;SDS011;34041;51.812;4.622;2023-02-15T06:03:51;27.40;;;23.43;;
48241;SDS011;34041;51.812;4.622;2023-02-15T06:06:52;28.77;;;22.27;;
48241;SDS011;34041;51.812;4.622;2023-02-15T06:09:52;30.08;;;22.83;;
48241;SDS011;34041;51.812;4.622;2023-02-15T06:12:52;28.40;;;21.73;;
48241;SDS011;34041;51.812;4.622;2023-02-15T06:15:53;28.25;;;23.10;;
48241;SDS011;34041;51.812;4.622;2023-02-15T06:18:53;28.48;;;22.25;;
48241;SDS011;34041;51.812;4.622;2023-02-15T06:25:31;24.50;;;20.10;;
48241;SDS011;34041;51.812;4.622;2023-02-15T06:28:31;28.10;;;22.83;;
48241;SDS011;34041;51.812;4.622;2023-02-15T06:31:31;31.37;;;22.33;;
48241;SDS011;34041;51.812;4.622;2023-02-15T06:34:32;25.08;;;21.27;;
48241;SDS011;34041;51.812;4.622;2023-02-15T06:37:32;28.05;;;22.42;;
48241;SDS011;34041;51.812;4.622;2023-02-15T06:40:32;29.57;;;21.17;;
48241;SDS011;34041;51.812;4.622;2023-02-15T06:43:33;28.83;;;23.03;;
48241;SDS011;34041;51.812;4.622;2023-02-15T06:46:34;26.27;;;20.15;;
48241;SDS011;34041;51.812;4.622;2023-02-15T06:49:34;28.83;;;21.25;;
48241;SDS011;34041;51.812;4.622;2023-02-15T06:52:34;24.80;;;20.87;;
48241;SDS011;34041;51.812;4.622;2023-02-15T06:55:34;27.53;;;20.87;;
48241;SDS011;34041;51.812;4.622;2023-02-15T06:58:38;26.70;;;20.50;;
48241;SDS011;34041;51.812;4.622;2023-02-15T07:01:38;29.02;;;22.27;;
48241;SDS011;34041;51.812;4.622;2023-02-15T07:04:38;25.60;;;20.23;;
48241;SDS011;34041;51.812;4.622;2023-02-15T07:07:39;25.60;;;20.40;;
48241;SDS011;34041;51.812;4.622;2023-02-15T07:10:39;25.50;;;20.93;;
48241;SDS011;34041;51.812;4.622;2023-02-15T07:13:42;24.98;;;21.30;;
48241;SDS011;34041;51.812;4.622;2023-02-15T07:16:43;27.07;;;21.27;;
48241;SDS011;34041;51.812;4.622;2023-02-15T07:19:43;26.77;;;22.07;;
48241;SDS011;34041;51.812;4.622;2023-02-15T07:22:43;23.90;;;20.63;;
48241;SDS011;34041;51.812;4.622;2023-02-15T07:25:44;26.35;;;20.48;;
48241;SDS011;34041;51.812;4.622;2023-02-15T07:28:44;25.20;;;21.37;;
48241;SDS011;34041;51.812;4.622;2023-02-15T07:31:44;24.53;;;21.07;;
48241;SDS011;34041;51.812;4.622;2023-02-15T07:34:45;26.25;;;22.15;;
48241;SDS011;34041;51.812;4.622;2023-02-15T07:37:45;24.60;;;20.03;;
48241;SDS011;34041;51.812;4.622;2023-02-15T07:40:45;24.87;;;20.60;;
48241;SDS011;34041;51.812;4.622;2023-02-15T07:43:46;28.15;;;22.67;;
48241;SDS011;34041;51.812;4.622;2023-02-15T07:46:46;32.30;;;21.83;;
48241;SDS011;34041;51.812;4.622;2023-02-15T07:49:46;26.20;;;22.10;;
48241;SDS011;34041;51.812;4.622;2023-02-15T07:52:47;27.73;;;21.15;;
48241;SDS011;34041;51.812;4.622;2023-02-15T07:55:48;26.77;;;21.53;;
48241;SDS011;34041;51.812;4.622;2023-02-15T07:58:48;22.63;;;19.83;;
48241;SDS011;34041;51.812;4.622;2023-02-15T08:01:51;28.35;;;22.02;;
48241;SDS011;34041;51.812;4.622;2023-02-15T08:04:54;26.00;;;21.05;;
48241;SDS011;34041;51.812;4.622;2023-02-15T08:07:54;25.67;;;20.90;;
48241;SDS011;34041;51.812;4.622;2023-02-15T08:10:57;24.27;;;21.63;;
48241;SDS011;34041;51.812;4.622;2023-02-15T08:14:19;28.48;;;22.58;;
48241;SDS011;34041;51.812;4.622;2023-02-15T08:17:20;30.30;;;23.80;;
48241;SDS011;34041;51.812;4.622;2023-02-15T08:20:20;32.03;;;22.50;;
48241;SDS011;34041;51.812;4.622;2023-02-15T08:23:20;31.10;;;24.63;;
48241;SDS011;34041;51.812;4.622;2023-02-15T08:26:21;30.63;;;22.53;;
48241;SDS011;34041;51.812;4.622;2023-02-15T08:29:23;31.02;;;23.65;;
48241;SDS011;34041;51.812;4.622;2023-02-15T08:32:23;29.80;;;22.98;;
48241;SDS011;34041;51.812;4.622;2023-02-15T08:35:23;29.53;;;23.67;;
48241;SDS011;34041;51.812;4.622;2023-02-15T08:38:24;32.00;;;23.20;;
48241;SDS011;34041;51.812;4.622;2023-02-15T08:41:25;31.87;;;24.53;;
48241;SDS011;34041;51.812;4.622;2023-02-15T08:44:26;28.35;;;21.80;;
48241;SDS011;34041;51.812;4.622;2023-02-15T08:47:26;26.90;;;23.35;;
48241;SDS011;34041;51.812;4.622;2023-02-15T08:50:27;29.42;;;22.10;;
48241;SDS011;34041;51.812;4.622;2023-02-15T08:53:27;28.33;;;22.45;;
48241;SDS011;34041;51.812;4.622;2023-02-15T08:56:28;32.23;;;24.47;;
48241;SDS011;34041;51.812;4.622;2023-02-15T08:59:30;24.80;;;21.38;;
48241;SDS011;34041;51.812;4.622;2023-02-15T09:02:30;29.30;;;22.83;;
48241;SDS011;34041;51.812;4.622;2023-02-15T09:05:30;30.42;;;22.98;;
48241;SDS011;34041;51.812;4.622;2023-02-15T09:08:30;27.10;;;21.37;;
48241;SDS011;34041;51.812;4.622;2023-02-15T09:11:33;27.23;;;21.40;;
48241;SDS011;34041;51.812;4.622;2023-02-15T09:14:34;27.00;;;22.63;;
48241;SDS011;34041;51.812;4.622;2023-02-15T09:17:34;27.90;;;23.00;;
48241;SDS011;34041;51.812;4.622;2023-02-15T09:20:35;29.87;;;22.83;;
48241;SDS011;34041;51.812;4.622;2023-02-15T09:23:36;25.80;;;21.52;;
48241;SDS011;34041;51.812;4.622;2023-02-15T09:26:40;25.98;;;21.60;;
48241;SDS011;34041;51.812;4.622;2023-02-15T09:29:40;30.90;;;22.90;;
48241;SDS011;34041;51.812;4.622;2023-02-15T09:32:41;31.17;;;23.70;;
48241;SDS011;34041;51.812;4.622;2023-02-15T09:35:41;27.07;;;21.77;;
48241;SDS011;34041;51.812;4.622;2023-02-15T09:38:41;25.60;;;22.30;;
48241;SDS011;34041;51.812;4.622;2023-02-15T10:01:11;28.45;;;22.75;;
48241;SDS011;34041;51.812;4.622;2023-02-15T10:17:49;33.33;;;24.98;;
48241;SDS011;34041;51.812;4.622;2023-02-15T10:20:56;31.23;;;24.02;;
48241;SDS011;34041;51.812;4.622;2023-02-15T10:27:08;30.23;;;24.77;;
48241;SDS011;34041;51.812;4.622;2023-02-15T10:30:12;30.40;;;24.80;;
48241;SDS011;34041;51.812;4.622;2023-02-15T10:33:16;28.38;;;23.95;;
48241;SDS011;34041;51.812;4.622;2023-02-15T10:52:17;32.47;;;27.15;;
48241;SDS011;34041;51.812;4.622;2023-02-15T10:55:23;31.15;;;27.23;;
48241;SDS011;34041;51.812;4.622;2023-02-15T11:01:37;35.97;;;26.17;;
48241;SDS011;34041;51.812;4.622;2023-02-15T11:07:53;29.15;;;26.00;;
48241;SDS011;34041;51.812;4.622;2023-02-15T11:10:57;31.63;;;25.42;;
48241;SDS011;34041;51.812;4.622;2023-02-15T11:13:59;33.10;;;25.75;;
48241;SDS011;34041;51.812;4.622;2023-02-15T11:17:12;32.22;;;26.65;;
48241;SDS011;34041;51.812;4.622;2023-02-15T11:20:27;31.08;;;25.98;;
48241;SDS011;34041;51.812;4.622;2023-02-15T11:26:33;30.85;;;24.45;;
48241;SDS011;34041;51.812;4.622;2023-02-15T11:29:35;30.67;;;26.88;;
48241;SDS011;34041;51.812;4.622;2023-02-15T11:32:38;32.70;;;26.45;;
48241;SDS011;34041;51.812;4.622;2023-02-15T11:35:46;32.80;;;26.15;;
48241;SDS011;34041;51.812;4.622;2023-02-15T11:38:49;35.88;;;27.02;;
48241;SDS011;34041;51.812;4.622;2023-02-15T11:41:51;31.52;;;24.83;;
48241;SDS011;34041;51.812;4.622;2023-02-15T11:48:26;33.13;;;27.33;;
48241;SDS011;34041;51.812;4.622;2023-02-15T11:51:29;29.45;;;24.58;;
48241;SDS011;34041;51.812;4.622;2023-02-15T11:54:30;36.13;;;26.50;;
48241;SDS011;34041;51.812;4.622;2023-02-15T11:57:33;31.33;;;25.67;;
48241;SDS011;34041;51.812;4.622;2023-02-15T12:00:43;32.97;;;26.52;;
48241;SDS011;34041;51.812;4.622;2023-02-15T12:03:49;34.28;;;27.77;;
48241;SDS011;34041;51.812;4.622;2023-02-15T12:06:58;36.10;;;27.40;;
48241;SDS011;34041;51.812;4.622;2023-02-15T12:10:00;34.78;;;26.50;;
48241;SDS011;34041;51.812;4.622;2023-02-15T12:13:08;35.85;;;27.42;;
48241;SDS011;34041;51.812;4.622;2023-02-15T12:16:09;35.92;;;27.45;;
48241;SDS011;34041;51.812;4.622;2023-02-15T12:19:33;31.33;;;25.75;;
48241;SDS011;34041;51.812;4.622;2023-02-15T12:22:33;32.13;;;26.13;;
48241;SDS011;34041;51.812;4.622;2023-02-15T12:28:44;31.60;;;24.75;;
48241;SDS011;34041;51.812;4.622;2023-02-15T12:31:49;33.83;;;26.92;;
48241;SDS011;34041;51.812;4.622;2023-02-15T12:34:52;34.17;;;28.10;;
48241;SDS011;34041;51.812;4.622;2023-02-15T12:37:54;31.80;;;25.85;;
48241;SDS011;34041;51.812;4.622;2023-02-15T12:41:02;34.80;;;28.05;;
48241;SDS011;34041;51.812;4.622;2023-02-15T12:44:04;33.17;;;25.35;;
48241;SDS011;34041;51.812;4.622;2023-02-15T12:47:17;39.38;;;29.65;;
48241;SDS011;34041;51.812;4.622;2023-02-15T12:50:22;32.92;;;26.40;;
48241;SDS011;34041;51.812;4.622;2023-02-15T12:53:30;34.50;;;26.77;;
48241;SDS011;34041;51.812;4.622;2023-02-15T12:56:30;35.58;;;26.05;;
48241;SDS011;34041;51.812;4.622;2023-02-15T12:59:30;35.77;;;27.07;;
48241;SDS011;34041;51.812;4.622;2023-02-15T13:03:14;34.33;;;28.57;;
48241;SDS011;34041;51.812;4.622;2023-02-15T13:05:54;34.45;;;27.23;;
48241;SDS011;34041;51.812;4.622;2023-02-15T13:08:58;33.30;;;27.35;;
48241;SDS011;34041;51.812;4.622;2023-02-15T13:12:24;33.97;;;27.13;;
48241;SDS011;34041;51.812;4.622;2023-02-15T13:15:36;32.40;;;26.05;;
48241;SDS011;34041;51.812;4.622;2023-02-15T13:18:38;34.15;;;25.88;;
48241;SDS011;34041;51.812;4.622;2023-02-15T13:21:39;37.08;;;28.00;;
48241;SDS011;34041;51.812;4.622;2023-02-15T13:24:51;35.30;;;26.75;;
48241;SDS011;34041;51.812;4.622;2023-02-15T13:27:54;36.47;;;27.50;;
48241;SDS011;34041;51.812;4.622;2023-02-15T13:30:55;35.78;;;26.00;;
48241;SDS011;34041;51.812;4.622;2023-02-15T13:33:58;31.67;;;26.63;;
48241;SDS011;34041;51.812;4.622;2023-02-15T13:37:05;31.75;;;26.17;;
48241;SDS011;34041;51.812;4.622;2023-02-15T13:40:22;34.40;;;28.75;;
48241;SDS011;34041;51.812;4.622;2023-02-15T13:50:03;33.35;;;26.80;;
48241;SDS011;34041;51.812;4.622;2023-02-15T13:56:46;31.33;;;26.17;;
48241;SDS011;34041;51.812;4.622;2023-02-15T14:03:19;35.05;;;26.75;;
48241;SDS011;34041;51.812;4.622;2023-02-15T14:15:38;31.42;;;25.77;;
48241;SDS011;34041;51.812;4.622;2023-02-15T14:24:56;33.13;;;26.43;;
48241;SDS011;34041;51.812;4.622;2023-02-15T14:28:07;32.17;;;24.90;;
48241;SDS011;34041;51.812;4.622;2023-02-15T14:31:09;33.08;;;26.30;;
48241;SDS011;34041;51.812;4.622;2023-02-15T14:34:17;33.92;;;26.27;;
48241;SDS011;34041;51.812;4.622;2023-02-15T14:37:20;35.25;;;26.20;;
48241;SDS011;34041;51.812;4.622;2023-02-15T14:53:34;35.07;;;27.30;;
48241;SDS011;34041;51.812;4.622;2023-02-15T14:56:38;34.72;;;26.10;;
48241;SDS011;34041;51.812;4.622;2023-02-15T15:02:40;32.83;;;25.73;;
48241;SDS011;34041;51.812;4.622;2023-02-15T15:05:48;38.50;;;26.90;;
48241;SDS011;34041;51.812;4.622;2023-02-15T15:08:49;33.78;;;25.98;;
48241;SDS011;34041;51.812;4.622;2023-02-15T15:11:52;33.20;;;28.60;;
48241;SDS011;34041;51.812;4.622;2023-02-15T15:14:53;42.70;;;28.00;;
48241;SDS011;34041;51.812;4.622;2023-02-15T15:20:57;37.22;;;27.25;;
48241;SDS011;34041;51.812;4.622;2023-02-15T15:23:57;34.83;;;25.40;;
48241;SDS011;34041;51.812;4.622;2023-02-15T15:33:30;37.53;;;27.05;;
48241;SDS011;34041;51.812;4.622;2023-02-15T15:45:53;36.60;;;27.27;;
48241;SDS011;34041;51.812;4.622;2023-02-15T15:49:02;35.53;;;24.40;;
48241;SDS011;34041;51.812;4.622;2023-02-15T15:52:13;34.45;;;27.65;;
48241;SDS011;34041;51.812;4.622;2023-02-15T15:55:18;33.13;;;26.33;;
48241;SDS011;34041;51.812;4.622;2023-02-15T15:58:19;34.83;;;26.85;;
48241;SDS011;34041;51.812;4.622;2023-02-15T16:01:26;38.30;;;28.23;;
48241;SDS011;34041;51.812;4.622;2023-02-15T16:04:28;37.33;;;27.77;;
48241;SDS011;34041;51.812;4.622;2023-02-15T16:07:29;32.22;;;25.80;;
48241;SDS011;34041;51.812;4.622;2023-02-15T16:10:30;37.03;;;27.50;;
48241;SDS011;34041;51.812;4.622;2023-02-15T16:13:32;37.08;;;26.83;;
48241;SDS011;34041;51.812;4.622;2023-02-15T16:16:33;31.40;;;25.60;;
48241;SDS011;34041;51.812;4.622;2023-02-15T16:19:38;38.27;;;26.73;;
48241;SDS011;34041;51.812;4.622;2023-02-15T16:22:38;35.08;;;25.35;;
48241;SDS011;34041;51.812;4.622;2023-02-15T16:28:51;34.58;;;25.15;;
48241;SDS011;34041;51.812;4.622;2023-02-15T16:32:06;31.73;;;24.77;;
48241;SDS011;34041;51.812;4.622;2023-02-15T16:35:16;37.95;;;27.83;;
48241;SDS011;34041;51.812;4.622;2023-02-15T16:38:16;33.95;;;26.15;;
48241;SDS011;34041;51.812;4.622;2023-02-15T16:41:21;41.13;;;26.85;;
48241;SDS011;34041;51.812;4.622;2023-02-15T16:44:22;31.80;;;25.42;;
48241;SDS011;34041;51.812;4.622;2023-02-15T16:50:28;35.38;;;24.27;;
48241;SDS011;34041;51.812;4.622;2023-02-15T16:53:30;29.70;;;24.52;;
48241;SDS011;34041;51.812;4.622;2023-02-15T16:56:31;31.07;;;24.40;;
48241;SDS011;34041;51.812;4.622;2023-02-15T16:59:33;31.10;;;23.80;;
48241;SDS011;34041;51.812;4.622;2023-02-15T17:02:34;31.25;;;24.05;;
48241;SDS011;34041;51.812;4.622;2023-02-15T17:05:40;34.15;;;26.58;;
48241;SDS011;34041;51.812;4.622;2023-02-15T17:08:43;34.28;;;24.90;;
48241;SDS011;34041;51.812;4.622;2023-02-15T17:11:43;33.55;;;25.77;;
48241;SDS011;34041;51.812;4.622;2023-02-15T17:14:43;32.30;;;25.27;;
48241;SDS011;34041;51.812;4.622;2023-02-15T17:17:44;34.37;;;24.67;;
48241;SDS011;34041;51.812;4.622;2023-02-15T17:20:44;34.07;;;26.33;;
48241;SDS011;34041;51.812;4.622;2023-02-15T17:23:45;31.00;;;25.10;;
48241;SDS011;34041;51.812;4.622;2023-02-15T17:26:48;31.35;;;25.02;;
48241;SDS011;34041;51.812;4.622;2023-02-15T17:29:50;31.90;;;24.35;;
48241;SDS011;34041;51.812;4.622;2023-02-15T17:32:55;28.20;;;22.63;;
48241;SDS011;34041;51.812;4.622;2023-02-15T17:36:02;28.83;;;23.40;;
48241;SDS011;34041;51.812;4.622;2023-02-15T17:39:06;30.17;;;25.35;;
48241;SDS011;34041;51.812;4.622;2023-02-15T17:42:18;35.17;;;26.42;;
48241;SDS011;34041;51.812;4.622;2023-02-15T17:45:18;34.10;;;25.67;;
48241;SDS011;34041;51.812;4.622;2023-02-15T17:48:32;30.60;;;23.98;;
48241;SDS011;34041;51.812;4.622;2023-02-15T17:51:33;34.53;;;24.23;;
48241;SDS011;34041;51.812;4.622;2023-02-15T17:54:35;30.77;;;24.50;;
48241;SDS011;34041;51.812;4.622;2023-02-15T17:57:53;28.30;;;22.80;;
48241;SDS011;34041;51.812;4.622;2023-02-15T18:00:54;30.77;;;24.13;;
48241;SDS011;34041;51.812;4.622;2023-02-15T18:04:14;31.10;;;25.20;;
48241;SDS011;34041;51.812;4.622;2023-02-15T18:07:33;31.48;;;24.45;;
48241;SDS011;34041;51.812;4.622;2023-02-15T18:10:52;31.30;;;24.73;;
48241;SDS011;34041;51.812;4.622;2023-02-15T18:14:11;29.88;;;23.98;;
48241;SDS011;34041;51.812;4.622;2023-02-15T18:17:11;34.90;;;25.27;;
48241;SDS011;34041;51.812;4.622;2023-02-15T18:20:20;31.58;;;24.58;;
48241;SDS011;34041;51.812;4.622;2023-02-15T18:23:23;28.85;;;23.02;;
48241;SDS011;34041;51.812;4.622;2023-02-15T18:26:23;35.78;;;25.83;;
48241;SDS011;34041;51.812;4.622;2023-02-15T18:29:24;31.60;;;24.38;;
48241;SDS011;34041;51.812;4.622;2023-02-15T18:32:27;27.05;;;22.63;;
48241;SDS011;34041;51.812;4.622;2023-02-15T18:35:31;30.85;;;25.50;;
48241;SDS011;34041;51.812;4.622;2023-02-15T18:38:32;30.45;;;24.48;;
48241;SDS011;34041;51.812;4.622;2023-02-15T18:41:32;27.98;;;23.63;;
48241;SDS011;34041;51.812;4.622;2023-02-15T18:44:32;29.83;;;24.90;;
48241;SDS011;34041;51.812;4.622;2023-02-15T18:47:33;29.23;;;23.20;;
48241;SDS011;34041;51.812;4.622;2023-02-15T18:50:33;30.73;;;24.73;;
48241;SDS011;34041;51.812;4.622;2023-02-15T18:53:33;29.60;;;24.10;;
48241;SDS011;34041;51.812;4.622;2023-02-15T18:56:34;28.58;;;24.27;;
48241;SDS011;34041;51.812;4.622;2023-02-15T18:59:34;30.93;;;24.10;;
48241;SDS011;34041;51.812;4.622;2023-02-15T19:02:34;27.47;;;23.23;;
48241;SDS011;34041;51.812;4.622;2023-02-15T19:05:34;30.63;;;23.97;;
48241;SDS011;34041;51.812;4.622;2023-02-15T19:08:35;31.65;;;26.08;;
48241;SDS011;34041;51.812;4.622;2023-02-15T19:11:35;31.25;;;24.10;;
48241;SDS011;34041;51.812;4.622;2023-02-15T19:14:35;26.23;;;23.10;;
48241;SDS011;34041;51.812;4.622;2023-02-15T19:17:36;31.07;;;24.43;;
48241;SDS011;34041;51.812;4.622;2023-02-15T19:20:40;28.97;;;22.43;;
48241;SDS011;34041;51.812;4.622;2023-02-15T19:23:41;32.08;;;24.35;;
48241;SDS011;34041;51.812;4.622;2023-02-15T19:26:41;33.43;;;25.57;;
48241;SDS011;34041;51.812;4.622;2023-02-15T19:29:41;32.78;;;25.30;;
48241;SDS011;34041;51.812;4.622;2023-02-15T19:32:42;30.43;;;24.83;;
48241;SDS011;34041;51.812;4.622;2023-02-15T19:35:43;32.70;;;26.08;;
48241;SDS011;34041;51.812;4.622;2023-02-15T19:38:45;30.98;;;24.15;;
48241;SDS011;34041;51.812;4.622;2023-02-15T19:41:47;28.42;;;24.73;;
48241;SDS011;34041;51.812;4.622;2023-02-15T19:44:48;35.33;;;26.63;;
48241;SDS011;34041;51.812;4.622;2023-02-15T19:47:49;33.33;;;25.13;;
48241;SDS011;34041;51.812;4.622;2023-02-15T19:50:50;29.67;;;24.30;;
48241;SDS011;34041;51.812;4.622;2023-02-15T19:53:55;31.98;;;25.65;;
48241;SDS011;34041;51.812;4.622;2023-02-15T19:56:56;30.33;;;24.88;;
48241;SDS011;34041;51.812;4.622;2023-02-15T19:59:57;32.63;;;25.83;;
48241;SDS011;34041;51.812;4.622;2023-02-15T20:02:58;31.27;;;26.23;;
48241;SDS011;34041;51.812;4.622;2023-02-15T20:05:58;30.20;;;24.83;;
48241;SDS011;34041;51.812;4.622;2023-02-15T20:08:59;34.47;;;25.77;;
48241;SDS011;34041;51.812;4.622;2023-02-15T20:11:59;34.43;;;25.13;;
48241;SDS011;34041;51.812;4.622;2023-02-15T20:14:59;30.00;;;24.70;;
48241;SDS011;34041;51.812;4.622;2023-02-15T20:18:00;31.50;;;23.80;;
48241;SDS011;34041;51.812;4.622;2023-02-15T20:21:05;31.02;;;24.85;;
48241;SDS011;34041;51.812;4.622;2023-02-15T20:24:15;29.70;;;24.15;;
48241;SDS011;34041;51.812;4.622;2023-02-15T20:27:16;25.98;;;22.70;;
48241;SDS011;34041;51.812;4.622;2023-02-15T20:30:21;31.17;;;24.73;;
48241;SDS011;34041;51.812;4.622;2023-02-15T20:33:21;29.65;;;24.70;;
48241;SDS011;34041;51.812;4.622;2023-02-15T20:36:22;30.57;;;25.33;;
48241;SDS011;34041;51.812;4.622;2023-02-15T20:39:22;32.05;;;25.52;;
48241;SDS011;34041;51.812;4.622;2023-02-15T20:42:22;30.70;;;25.43;;
48241;SDS011;34041;51.812;4.622;2023-02-15T20:45:31;31.23;;;25.77;;
48241;SDS011;34041;51.812;4.622;2023-02-15T20:48:32;27.67;;;23.52;;
48241;SDS011;34041;51.812;4.622;2023-02-15T20:51:32;29.17;;;23.42;;
48241;SDS011;34041;51.812;4.622;2023-02-15T20:54:33;28.60;;;23.70;;
48241;SDS011;34041;51.812;4.622;2023-02-15T20:57:34;29.92;;;24.70;;
48241;SDS011;34041;51.812;4.622;2023-02-15T21:00:35;29.27;;;24.07;;
48241;SDS011;34041;51.812;4.622;2023-02-15T21:03:35;27.70;;;23.83;;
48241;SDS011;34041;51.812;4.622;2023-02-15T21:06:35;28.27;;;23.20;;
48241;SDS011;34041;51.812;4.622;2023-02-15T21:09:35;27.53;;;22.17;;
48241;SDS011;34041;51.812;4.622;2023-02-15T21:12:36;26.17;;;23.30;;
48241;SDS011;34041;51.812;4.622;2023-02-15T21:15:36;27.67;;;23.80;;
48241;SDS011;34041;51.812;4.622;2023-02-15T21:18:38;30.50;;;24.30;;
48241;SDS011;34041;51.812;4.622;2023-02-15T21:21:41;30.02;;;23.52;;
48241;SDS011;34041;51.812;4.622;2023-02-15T21:24:43;29.73;;;25.27;;
48241;SDS011;34041;51.812;4.622;2023-02-15T21:27:45;31.23;;;24.10;;
48241;SDS011;34041;51.812;4.622;2023-02-15T21:30:46;29.13;;;26.00;;
48241;SDS011;34041;51.812;4.622;2023-02-15T21:33:47;28.42;;;23.35;;
48241;SDS011;34041;51.812;4.622;2023-02-15T21:36:47;30.17;;;23.85;;
48241;SDS011;34041;51.812;4.622;2023-02-15T21:39:49;32.80;;;24.25;;
48241;SDS011;34041;51.812;4.622;2023-02-15T21:42:49;27.40;;;23.07;;
48241;SDS011;34041;51.812;4.622;2023-02-15T21:46:12;27.90;;;24.15;;
48241;SDS011;34041;51.812;4.622;2023-02-15T21:49:31;31.27;;;25.38;;
48241;SDS011;34041;51.812;4.622;2023-02-15T21:52:31;29.47;;;25.37;;
48241;SDS011;34041;51.812;4.622;2023-02-15T21:55:31;29.87;;;22.63;;
48241;SDS011;34041;51.812;4.622;2023-02-15T21:58:34;26.95;;;23.88;;
48241;SDS011;34041;51.812;4.622;2023-02-15T22:01:34;29.90;;;24.85;;
48241;SDS011;34041;51.812;4.622;2023-02-15T22:04:35;28.93;;;24.10;;
48241;SDS011;34041;51.812;4.622;2023-02-15T22:07:35;29.73;;;25.27;;
48241;SDS011;34041;51.812;4.622;2023-02-15T22:10:35;31.73;;;24.27;;
48241;SDS011;34041;51.812;4.622;2023-02-15T22:13:35;28.40;;;22.83;;
48241;SDS011;34041;51.812;4.622;2023-02-15T22:16:36;29.20;;;25.02;;
48241;SDS011;34041;51.812;4.622;2023-02-15T22:19:36;29.88;;;25.30;;
48241;SDS011;34041;51.812;4.622;2023-02-15T22:22:36;32.90;;;25.77;;
48241;SDS011;34041;51.812;4.622;2023-02-15T22:25:36;29.37;;;23.83;;
48241;SDS011;34041;51.812;4.622;2023-02-15T22:28:37;30.20;;;24.80;;
48241;SDS011;34041;51.812;4.622;2023-02-15T22:31:38;30.58;;;24.50;;
48241;SDS011;34041;51.812;4.622;2023-02-15T22:34:38;31.67;;;25.00;;
48241;SDS011;34041;51.812;4.622;2023-02-15T22:37:38;28.03;;;24.17;;
48241;SDS011;34041;51.812;4.622;2023-02-15T22:40:38;30.08;;;23.85;;
48241;SDS011;34041;51.812;4.622;2023-02-15T22:43:39;27.85;;;23.27;;
48241;SDS011;34041;51.812;4.622;2023-02-15T22:46:40;32.28;;;27.48;;
48241;SDS011;34041;51.812;4.622;2023-02-15T22:49:40;32.03;;;25.52;;
48241;SDS011;34041;51.812;4.622;2023-02-15T22:52:41;31.00;;;25.63;;
48241;SDS011;34041;51.812;4.622;2023-02-15T22:55:42;28.20;;;23.70;;
48241;SDS011;34041;51.812;4.622;2023-02-15T22:58:42;30.90;;;25.73;;
48241;SDS011;34041;51.812;4.622;2023-02-15T23:01:43;31.88;;;25.35;;
48241;SDS011;34041;51.812;4.622;2023-02-15T23:04:43;30.20;;;25.73;;
48241;SDS011;34041;51.812;4.622;2023-02-15T23:07:43;32.13;;;25.90;;
48241;SDS011;34041;51.812;4.622;2023-02-15T23:10:44;30.23;;;23.45;;
48241;SDS011;34041;51.812;4.622;2023-02-15T23:13:46;30.65;;;26.92;;
48241;SDS011;34041;51.812;4.622;2023-02-15T23:16:47;30.75;;;25.75;;
48241;SDS011;34041;51.812;4.622;2023-02-15T23:19:47;32.50;;;26.10;;
48241;SDS011;34041;51.812;4.622;2023-02-15T23:22:48;33.20;;;25.63;;
48241;SDS011;34041;51.812;4.622;2023-02-15T23:25:48;30.92;;;25.25;;
48241;SDS011;34041;51.812;4.622;2023-02-15T23:28:49;34.90;;;26.48;;
48241;SDS011;34041;51.812;4.622;2023-02-15T23:31:51;30.05;;;25.13;;
48241;SDS011;34041;51.812;4.622;2023-02-15T23:34:52;36.15;;;28.15;;
48241;SDS011;34041;51.812;4.622;2023-02-15T23:37:52;29.17;;;25.93;;
48241;SDS011;34041;51.812;4.622;2023-02-15T23:40:54;30.60;;;26.23;;
48241;SDS011;34041;51.812;4.622;2023-02-15T23:44:14;31.27;;;25.38;;
48241;SDS011;34041;51.812;4.622;2023-02-15T23:47:18;32.40;;;26.48;;
48241;SDS011;34041;51.812;4.622;2023-02-15T23:53:19;33.50;;;25.95;;
48241;SDS011;34041;51.812;4.622;2023-02-15T23:56:19;31.70;;;25.73;;
48241;SDS011;34041;51.812;4.622;2023-02-15T23:59:23;32.57;;;26.40;;
